createdAt,value
2018-04-24T00:00:08.050Z,11.40
2018-04-24T00:01:05.119Z,11.40
2018-04-24T00:02:05.359Z,11.30
2018-04-24T00:03:10.944Z,11.30
2018-04-24T00:04:10.639Z,11.30
2018-04-24T00:05:06.117Z,11.40
2018-04-24T00:06:05.392Z,11.30
2018-04-24T00:07:05.533Z,11.30
2018-04-24T00:08:09.168Z,11.30
2018-04-24T00:09:05.933Z,11.20
2018-04-24T00:10:05.577Z,11.20
2018-04-24T00:11:05.563Z,11.20
2018-04-24T00:12:05.289Z,11.20
2018-04-24T00:13:10.487Z,11.10
2018-04-24T00:14:06.186Z,11.10
2018-04-24T00:15:07.901Z,11.10
2018-04-24T00:16:05.607Z,11.10
2018-04-24T00:17:05.796Z,11.10
2018-04-24T00:18:05.851Z,11.10
2018-04-24T00:19:09.360Z,11.00
2018-04-24T00:20:05.961Z,11.00
2018-04-24T00:21:05.585Z,11.00
2018-04-24T00:22:05.270Z,11.00
2018-04-24T00:23:08.579Z,11.00
2018-04-24T00:24:08.182Z,11.00
2018-04-24T00:25:06.017Z,11.00
2018-04-24T00:26:14.095Z,10.90
2018-04-24T00:27:11.462Z,10.90
2018-04-24T00:28:12.536Z,10.90
2018-04-24T00:29:05.548Z,10.80
2018-04-24T00:30:05.520Z,10.80
2018-04-24T00:31:13.683Z,10.80
2018-04-24T00:32:10.316Z,10.80
2018-04-24T00:33:08.517Z,10.80
2018-04-24T00:34:06.040Z,10.80
2018-04-24T00:35:05.995Z,10.80
2018-04-24T00:36:05.914Z,10.80
2018-04-24T00:37:05.760Z,10.80
2018-04-24T00:38:09.880Z,10.80
2018-04-24T00:39:05.993Z,10.80
2018-04-24T00:40:08.343Z,10.80
2018-04-24T00:41:06.247Z,10.80
2018-04-24T00:42:08.734Z,10.80
2018-04-24T00:43:08.039Z,10.80
2018-04-24T00:44:08.374Z,10.80
2018-04-24T00:45:08.655Z,10.80
2018-04-24T00:46:05.271Z,10.80
2018-04-24T00:47:06.187Z,10.80
2018-04-24T00:48:05.879Z,10.80
2018-04-24T00:49:05.637Z,10.80
2018-04-24T00:50:11.938Z,10.70
2018-04-24T00:51:09.401Z,10.80
2018-04-24T00:52:06.009Z,10.70
2018-04-24T00:53:05.819Z,10.80
2018-04-24T00:54:08.104Z,10.80
2018-04-24T00:55:08.915Z,10.80
2018-04-24T00:56:05.415Z,10.70
2018-04-24T00:57:05.134Z,10.80
2018-04-24T00:58:05.970Z,10.80
2018-04-24T00:59:10.669Z,10.80
2018-04-24T01:00:05.239Z,10.70
2018-04-24T01:01:06.415Z,10.80
2018-04-24T01:02:05.420Z,10.80
2018-04-24T01:03:15.786Z,10.70
2018-04-24T01:04:10.425Z,10.80
2018-04-24T01:05:05.859Z,10.80
2018-04-24T01:06:06.172Z,10.80
2018-04-24T01:07:10.669Z,10.80
2018-04-24T01:08:08.463Z,10.80
2018-04-24T01:09:05.976Z,10.80
2018-04-24T01:10:05.841Z,10.80
2018-04-24T01:11:08.260Z,10.80
2018-04-24T01:12:08.810Z,10.80
2018-04-24T01:13:05.435Z,10.80
2018-04-24T01:14:08.141Z,7.60
2018-04-24T01:15:05.674Z,10.80
2018-04-24T01:16:05.767Z,10.80
2018-04-24T01:17:05.895Z,10.80
2018-04-24T01:18:10.757Z,10.80
2018-04-24T01:19:10.229Z,10.80
2018-04-24T01:20:06.065Z,10.80
2018-04-24T01:21:05.717Z,10.80
2018-04-24T01:22:09.206Z,10.80
2018-04-24T01:23:11.193Z,10.80
2018-04-24T01:24:05.910Z,10.80
2018-04-24T01:25:05.349Z,10.80
2018-04-24T01:26:05.985Z,10.80
2018-04-24T01:27:10.123Z,10.80
2018-04-24T01:28:06.116Z,10.80
2018-04-24T01:29:10.382Z,10.80
2018-04-24T01:30:08.422Z,10.80
2018-04-24T01:31:05.983Z,10.80
2018-04-24T01:32:10.253Z,10.80
2018-04-24T01:33:08.540Z,10.80
2018-04-24T01:34:06.059Z,10.80
2018-04-24T01:35:13.498Z,10.80
2018-04-24T01:36:06.129Z,10.80
2018-04-24T01:37:05.257Z,10.80
2018-04-24T01:38:07.776Z,10.90
2018-04-24T01:39:07.934Z,10.90
2018-04-24T01:40:05.416Z,10.80
2018-04-24T01:41:06.682Z,10.80
2018-04-24T01:42:05.692Z,10.90
2018-04-24T01:43:05.516Z,10.90
2018-04-24T01:44:06.168Z,10.90
2018-04-24T01:45:10.899Z,10.90
2018-04-24T01:46:05.957Z,10.80
2018-04-24T01:47:08.261Z,10.90
2018-04-24T01:48:08.266Z,10.90
2018-04-24T01:49:11.237Z,10.90
2018-04-24T01:50:05.638Z,10.90
2018-04-24T01:51:08.137Z,10.90
2018-04-24T01:52:05.321Z,10.90
2018-04-24T01:53:06.018Z,10.90
2018-04-24T01:54:05.806Z,10.90
2018-04-24T01:55:05.585Z,10.90
2018-04-24T01:56:11.318Z,10.90
2018-04-24T01:57:05.610Z,10.90
2018-04-24T01:58:05.984Z,10.90
2018-04-24T01:59:11.043Z,10.80
2018-04-24T02:00:06.105Z,10.80
2018-04-24T02:01:13.476Z,10.80
2018-04-24T02:02:06.315Z,10.80
2018-04-24T02:03:05.397Z,10.80
2018-04-24T02:04:06.131Z,10.80
2018-04-24T02:05:08.580Z,10.80
2018-04-24T02:06:05.126Z,10.80
2018-04-24T02:07:05.473Z,10.80
2018-04-24T02:08:06.238Z,10.80
2018-04-24T02:09:05.656Z,10.70
2018-04-24T02:10:06.035Z,10.70
2018-04-24T02:11:08.536Z,10.70
2018-04-24T02:12:06.198Z,10.80
2018-04-24T02:13:05.651Z,10.80
2018-04-24T02:14:05.970Z,10.80
2018-04-24T02:15:08.637Z,10.80
2018-04-24T02:16:05.606Z,10.80
2018-04-24T02:17:05.538Z,10.80
2018-04-24T02:18:10.754Z,10.80
2018-04-24T02:19:05.340Z,10.80
2018-04-24T02:20:06.442Z,10.80
2018-04-24T02:21:08.567Z,10.80
2018-04-24T02:22:11.498Z,10.80
2018-04-24T02:23:05.299Z,10.80
2018-04-24T02:24:06.220Z,10.80
2018-04-24T02:25:06.171Z,10.80
2018-04-24T02:26:10.350Z,10.80
2018-04-24T02:27:11.065Z,10.80
2018-04-24T02:28:06.068Z,10.80
2018-04-24T02:29:05.562Z,10.80
2018-04-24T02:30:10.521Z,10.80
2018-04-24T02:31:07.896Z,10.80
2018-04-24T02:32:05.379Z,10.80
2018-04-24T02:33:05.321Z,10.80
2018-04-24T02:34:05.972Z,10.80
2018-04-24T02:35:10.397Z,10.80
2018-04-24T02:36:05.969Z,10.80
2018-04-24T02:37:07.768Z,10.80
2018-04-24T02:38:07.842Z,10.80
2018-04-24T02:39:05.358Z,10.80
2018-04-24T02:40:08.045Z,10.80
2018-04-24T02:41:05.632Z,10.80
2018-04-24T02:42:05.914Z,10.80
2018-04-24T02:43:08.710Z,10.80
2018-04-24T02:44:05.535Z,10.80
2018-04-24T02:45:10.392Z,10.80
2018-04-24T02:46:06.358Z,10.80
2018-04-24T02:47:05.342Z,10.80
2018-04-24T02:48:10.776Z,10.80
2018-04-24T02:49:05.616Z,10.80
2018-04-24T02:50:07.893Z,10.80
2018-04-24T02:51:08.494Z,10.80
2018-04-24T02:52:06.063Z,10.80
2018-04-24T02:53:05.672Z,10.80
2018-04-24T02:54:10.971Z,10.80
2018-04-24T02:55:05.593Z,10.80
2018-04-24T02:56:05.579Z,10.80
2018-04-24T02:57:05.189Z,10.80
2018-04-24T02:58:11.091Z,10.70
2018-04-24T02:59:11.909Z,10.70
2018-04-24T03:00:06.695Z,10.70
2018-04-24T03:01:07.910Z,10.70
2018-04-24T03:02:05.706Z,10.70
2018-04-24T03:03:05.524Z,10.70
2018-04-24T03:04:05.941Z,10.70
2018-04-24T03:05:05.440Z,10.70
2018-04-24T03:06:06.163Z,10.60
2018-04-24T03:07:05.466Z,10.60
2018-04-24T03:08:05.549Z,10.60
2018-04-24T03:09:05.183Z,10.60
2018-04-24T03:10:05.504Z,10.60
2018-04-24T03:11:05.799Z,10.60
2018-04-24T03:12:08.512Z,10.60
2018-04-24T03:13:06.263Z,10.60
2018-04-24T03:14:05.541Z,10.60
2018-04-24T03:15:08.364Z,10.60
2018-04-24T03:16:11.177Z,10.60
2018-04-24T03:17:05.941Z,10.60
2018-04-24T03:18:09.136Z,10.60
2018-04-24T03:19:08.248Z,10.60
2018-04-24T03:20:08.297Z,10.60
2018-04-24T03:21:05.931Z,10.60
2018-04-24T03:22:05.701Z,10.60
2018-04-24T03:23:07.847Z,10.60
2018-04-24T03:24:05.398Z,10.60
2018-04-24T03:25:05.264Z,10.60
2018-04-24T03:26:05.116Z,10.60
2018-04-24T03:27:05.379Z,10.60
2018-04-24T03:28:10.873Z,10.60
2018-04-24T03:29:05.171Z,10.60
2018-04-24T03:30:10.813Z,10.60
2018-04-24T03:31:11.318Z,10.60
2018-04-24T03:32:06.038Z,10.60
2018-04-24T03:33:06.022Z,10.60
2018-04-24T03:34:05.767Z,10.70
2018-04-24T03:35:05.830Z,10.60
2018-04-24T03:36:10.751Z,10.60
2018-04-24T03:37:08.289Z,10.60
2018-04-24T03:38:09.149Z,10.60
2018-04-24T03:39:05.793Z,10.60
2018-04-24T03:40:05.393Z,10.60
2018-04-24T03:41:10.428Z,10.60
2018-04-24T03:42:09.358Z,10.60
2018-04-24T03:43:09.452Z,10.60
2018-04-24T03:44:08.636Z,10.60
2018-04-24T03:45:05.482Z,10.60
2018-04-24T03:46:05.634Z,10.60
2018-04-24T03:47:05.449Z,10.60
2018-04-24T03:48:05.300Z,10.60
2018-04-24T03:49:08.195Z,10.60
2018-04-24T03:50:05.879Z,10.50
2018-04-24T03:51:05.604Z,10.60
2018-04-24T03:52:05.394Z,10.60
2018-04-24T03:53:06.498Z,10.50
2018-04-24T03:54:05.803Z,10.50
2018-04-24T03:55:05.608Z,10.50
2018-04-24T03:56:05.198Z,10.50
2018-04-24T03:57:06.070Z,10.50
2018-04-24T03:58:05.152Z,10.50
2018-04-24T03:59:05.225Z,10.50
2018-04-24T04:00:05.437Z,10.50
2018-04-24T04:01:05.833Z,10.60
2018-04-24T04:02:05.716Z,10.50
2018-04-24T04:03:09.902Z,10.60
2018-04-24T04:04:05.294Z,10.60
2018-04-24T04:05:05.769Z,10.60
2018-04-24T04:06:11.355Z,10.60
2018-04-24T04:07:05.326Z,10.60
2018-04-24T04:08:14.553Z,10.60
2018-04-24T04:09:06.223Z,10.50
2018-04-24T04:10:05.402Z,10.50
2018-04-24T04:11:05.661Z,10.60
2018-04-24T04:12:08.577Z,10.50
2018-04-24T04:13:06.392Z,10.50
2018-04-24T04:14:17.957Z,10.50
2018-04-24T04:15:09.049Z,10.50
2018-04-24T04:16:06.295Z,10.50
2018-04-24T04:17:05.796Z,10.50
2018-04-24T04:18:05.603Z,10.50
2018-04-24T04:19:10.578Z,10.50
2018-04-24T04:20:08.161Z,10.50
2018-04-24T04:21:08.480Z,10.50
2018-04-24T04:22:05.632Z,10.50
2018-04-24T04:23:05.446Z,10.50
2018-04-24T04:24:05.884Z,10.50
2018-04-24T04:25:09.088Z,10.40
2018-04-24T04:26:05.677Z,10.40
2018-04-24T04:27:05.684Z,10.40
2018-04-24T04:28:10.530Z,10.40
2018-04-24T04:29:05.525Z,10.40
2018-04-24T04:30:05.508Z,10.40
2018-04-24T04:31:05.574Z,10.30
2018-04-24T04:32:05.415Z,10.30
2018-04-24T04:33:05.619Z,10.30
2018-04-24T04:34:13.699Z,10.20
2018-04-24T04:35:05.843Z,10.20
2018-04-24T04:36:08.646Z,10.20
2018-04-24T04:37:10.508Z,10.20
2018-04-24T04:38:06.160Z,10.20
2018-04-24T04:39:09.099Z,10.30
2018-04-24T04:40:05.900Z,10.20
2018-04-24T04:41:05.756Z,10.20
2018-04-24T04:42:05.843Z,10.20
2018-04-24T04:43:06.027Z,10.30
2018-04-24T04:44:08.534Z,10.20
2018-04-24T04:45:06.616Z,10.20
2018-04-24T04:46:11.137Z,10.20
2018-04-24T04:47:05.560Z,10.20
2018-04-24T04:48:05.965Z,10.20
2018-04-24T04:49:05.339Z,10.30
2018-04-24T04:50:13.238Z,10.30
2018-04-24T04:51:08.677Z,10.30
2018-04-24T04:52:05.471Z,10.30
2018-04-24T04:53:05.541Z,10.30
2018-04-24T04:54:10.429Z,10.30
2018-04-24T04:55:05.838Z,10.30
2018-04-24T04:56:05.261Z,10.40
2018-04-24T04:57:05.625Z,10.30
2018-04-24T04:58:10.242Z,10.40
2018-04-24T04:59:06.492Z,10.40
2018-04-24T05:00:05.683Z,10.40
2018-04-24T05:01:07.982Z,10.40
2018-04-24T05:02:05.454Z,10.40
2018-04-24T05:03:08.585Z,10.40
2018-04-24T05:04:10.284Z,10.40
2018-04-24T05:05:05.310Z,10.40
2018-04-24T05:06:05.988Z,10.40
2018-04-24T05:07:11.145Z,10.50
2018-04-24T05:08:05.976Z,10.50
2018-04-24T05:09:05.941Z,10.50
2018-04-24T05:10:10.361Z,10.50
2018-04-24T05:11:08.320Z,10.50
2018-04-24T05:12:05.864Z,10.60
2018-04-24T05:13:05.959Z,10.60
2018-04-24T05:14:06.086Z,10.60
2018-04-24T05:15:05.951Z,10.70
2018-04-24T05:16:13.704Z,10.70
2018-04-24T05:17:08.499Z,10.70
2018-04-24T05:18:09.406Z,10.70
2018-04-24T05:19:09.373Z,10.80
2018-04-24T05:20:06.120Z,10.80
2018-04-24T05:21:11.732Z,10.80
2018-04-24T05:22:18.241Z,10.80
2018-04-24T05:23:15.928Z,10.90
2018-04-24T05:24:06.070Z,10.90
2018-04-24T05:25:05.797Z,10.90
2018-04-24T05:26:09.014Z,10.90
2018-04-24T05:27:08.264Z,10.90
2018-04-24T05:28:06.035Z,10.90
2018-04-24T05:29:05.716Z,11.00
2018-04-24T05:30:05.448Z,11.00
2018-04-24T05:31:07.836Z,11.10
2018-04-24T05:32:05.390Z,11.10
2018-04-24T05:33:05.491Z,11.10
2018-04-24T05:34:05.846Z,11.20
2018-04-24T05:35:05.634Z,11.20
2018-04-24T05:36:11.222Z,11.20
2018-04-24T05:37:07.848Z,11.30
2018-04-24T05:38:05.813Z,11.30
2018-04-24T05:39:05.670Z,11.30
2018-04-24T05:40:05.673Z,11.40
2018-04-24T05:41:09.878Z,11.40
2018-04-24T05:42:05.785Z,11.40
2018-04-24T05:43:05.483Z,11.50
2018-04-24T05:44:05.382Z,11.50
2018-04-24T05:45:11.439Z,11.50
2018-04-24T05:46:06.103Z,11.50
2018-04-24T05:47:05.948Z,11.60
2018-04-24T05:48:06.182Z,11.70
2018-04-24T05:49:05.276Z,11.80
2018-04-24T05:50:08.708Z,11.90
2018-04-24T05:51:05.429Z,11.90
2018-04-24T05:52:08.789Z,12.10
2018-04-24T05:53:08.264Z,12.10
2018-04-24T05:54:05.150Z,12.10
2018-04-24T05:55:06.335Z,12.10
2018-04-24T05:56:05.466Z,12.20
2018-04-24T05:57:05.330Z,12.30
2018-04-24T05:58:09.134Z,12.40
2018-04-24T05:59:06.915Z,12.30
2018-04-24T06:00:05.841Z,12.40
2018-04-24T06:01:10.942Z,12.50
2018-04-24T06:02:08.660Z,12.70
2018-04-24T06:03:07.812Z,12.90
2018-04-24T06:04:09.229Z,13.10
2018-04-24T06:05:05.531Z,13.10
2018-04-24T06:06:08.255Z,13.40
2018-04-24T06:07:05.857Z,13.40
2018-04-24T06:08:05.898Z,13.50
2018-04-24T06:09:06.185Z,13.60
2018-04-24T06:10:05.667Z,13.70
2018-04-24T06:11:05.610Z,13.70
2018-04-24T06:12:10.200Z,13.70
2018-04-24T06:13:08.874Z,13.90
2018-04-24T06:14:05.552Z,13.80
2018-04-24T06:15:05.703Z,14.00
2018-04-24T06:16:06.171Z,14.10
2018-04-24T06:17:10.594Z,14.30
2018-04-24T06:18:10.281Z,14.50
2018-04-24T06:19:06.039Z,14.50
2018-04-24T06:20:06.184Z,14.70
2018-04-24T06:21:06.117Z,14.80
2018-04-24T06:22:05.988Z,15.00
2018-04-24T06:23:05.511Z,15.10
2018-04-24T06:24:11.460Z,15.40
2018-04-24T06:25:06.015Z,15.40
2018-04-24T06:26:05.831Z,15.50
2018-04-24T06:27:05.402Z,15.70
2018-04-24T06:28:05.208Z,15.80
2018-04-24T06:29:05.231Z,16.00
2018-04-24T06:30:06.087Z,16.20
2018-04-24T06:31:05.635Z,16.30
2018-04-24T06:32:10.549Z,16.60
2018-04-24T06:33:05.573Z,16.60
2018-04-24T06:34:15.945Z,16.90
2018-04-24T06:35:08.148Z,17.00
2018-04-24T06:36:06.194Z,17.00
2018-04-24T06:37:06.115Z,17.10
2018-04-24T06:38:05.937Z,17.20
2018-04-24T06:39:05.960Z,17.30
2018-04-24T06:40:13.487Z,17.40
2018-04-24T06:41:05.645Z,17.40
2018-04-24T06:42:06.385Z,17.50
2018-04-24T06:43:05.241Z,17.50
2018-04-24T06:44:11.239Z,17.50
2018-04-24T06:45:06.112Z,17.50
2018-04-24T06:46:06.030Z,17.50
2018-04-24T06:47:08.256Z,17.50
2018-04-24T06:48:08.706Z,17.50
2018-04-24T06:49:05.319Z,17.50
2018-04-24T06:50:05.472Z,17.50
2018-04-24T06:51:05.372Z,17.60
2018-04-24T06:52:06.494Z,17.60
2018-04-24T06:53:11.305Z,17.60
2018-04-24T06:54:05.870Z,17.70
2018-04-24T06:55:06.009Z,17.70
2018-04-24T06:56:08.001Z,17.70
2018-04-24T06:57:05.774Z,17.70
2018-04-24T06:58:05.886Z,17.70
2018-04-24T06:59:08.036Z,17.70
2018-04-24T07:00:05.575Z,17.70
2018-04-24T07:01:09.034Z,17.80
2018-04-24T07:02:05.738Z,17.80
2018-04-24T07:03:05.609Z,17.80
2018-04-24T07:04:05.459Z,17.90
2018-04-24T07:05:11.190Z,17.90
2018-04-24T07:06:08.732Z,18.00
2018-04-24T07:07:09.048Z,18.00
2018-04-24T07:08:10.735Z,18.00
2018-04-24T07:09:06.519Z,17.90
2018-04-24T07:10:10.678Z,18.00
2018-04-24T07:11:05.583Z,18.00
2018-04-24T07:12:10.063Z,18.10
2018-04-24T07:13:10.938Z,18.10
2018-04-24T07:14:05.680Z,18.10
2018-04-24T07:15:05.906Z,18.20
2018-04-24T07:16:05.568Z,18.20
2018-04-24T07:17:08.639Z,18.30
2018-04-24T07:18:05.467Z,18.30
2018-04-24T07:19:06.371Z,18.30
2018-04-24T07:20:06.010Z,18.30
2018-04-24T07:21:10.738Z,18.40
2018-04-24T07:22:08.297Z,18.40
2018-04-24T07:23:06.102Z,18.40
2018-04-24T07:24:06.066Z,18.40
2018-04-24T07:25:06.405Z,18.50
2018-04-24T07:26:09.034Z,18.40
2018-04-24T07:27:08.576Z,18.40
2018-04-24T07:28:05.396Z,18.40
2018-04-24T07:29:05.391Z,18.40
2018-04-24T07:30:05.553Z,18.40
2018-04-24T07:31:05.611Z,18.30
2018-04-24T07:32:05.881Z,18.30
2018-04-24T07:33:09.421Z,18.20
2018-04-24T07:34:06.241Z,18.20
2018-04-24T07:35:05.327Z,18.20
2018-04-24T07:36:05.647Z,18.20
2018-04-24T07:37:06.021Z,18.20
2018-04-24T07:38:05.721Z,18.20
2018-04-24T07:39:05.882Z,18.20
2018-04-24T07:40:05.845Z,18.20
2018-04-24T07:41:05.810Z,18.10
2018-04-24T07:42:06.226Z,18.10
2018-04-24T07:43:06.148Z,18.10
2018-04-24T07:44:05.261Z,18.10
2018-04-24T07:45:05.531Z,18.00
2018-04-24T07:46:08.892Z,17.90
2018-04-24T07:47:08.132Z,17.90
2018-04-24T07:48:06.126Z,17.90
2018-04-24T07:49:05.305Z,17.90
2018-04-24T07:50:10.588Z,17.80
2018-04-24T07:51:05.853Z,17.80
2018-04-24T07:52:05.610Z,17.80
2018-04-24T07:53:08.699Z,17.70
2018-04-24T07:54:07.862Z,17.70
2018-04-24T07:55:05.388Z,17.60
2018-04-24T07:56:11.115Z,17.60
2018-04-24T07:57:05.446Z,17.60
2018-04-24T07:58:05.386Z,17.60
2018-04-24T07:59:09.003Z,17.60
2018-04-24T08:00:09.190Z,17.60
2018-04-24T08:01:05.736Z,17.60
2018-04-24T08:02:05.313Z,17.60
2018-04-24T08:03:05.457Z,17.50
2018-04-24T08:04:07.964Z,17.60
2018-04-24T08:05:05.764Z,17.50
2018-04-24T08:06:05.557Z,17.50
2018-04-24T08:07:05.445Z,17.50
2018-04-24T08:08:10.853Z,17.50
2018-04-24T08:09:06.253Z,17.50
2018-04-24T08:10:08.463Z,17.50
2018-04-24T08:11:05.831Z,17.50
2018-04-24T08:12:05.829Z,17.50
2018-04-24T08:13:05.781Z,17.50
2018-04-24T08:14:06.037Z,17.50
2018-04-24T08:15:06.016Z,17.50
2018-04-24T08:16:13.735Z,17.60
2018-04-24T08:17:05.523Z,17.60
2018-04-24T08:18:05.308Z,17.60
2018-04-24T08:19:08.427Z,17.70
2018-04-24T08:20:06.007Z,17.70
2018-04-24T08:21:05.292Z,17.70
2018-04-24T08:22:10.520Z,17.80
2018-04-24T08:23:05.518Z,17.80
2018-04-24T08:24:10.583Z,17.90
2018-04-24T08:25:13.802Z,17.90
2018-04-24T08:26:08.984Z,18.00
2018-04-24T08:27:10.548Z,18.00
2018-04-24T08:28:05.327Z,18.00
2018-04-24T08:29:13.571Z,18.00
2018-04-24T08:30:05.364Z,18.10
2018-04-24T08:31:05.730Z,18.10
2018-04-24T08:32:06.777Z,18.10
2018-04-24T08:33:05.734Z,18.00
2018-04-24T08:34:05.627Z,18.10
2018-04-24T08:35:05.860Z,18.00
2018-04-24T08:36:08.401Z,18.00
2018-04-24T08:37:12.970Z,17.90
2018-04-24T08:38:05.807Z,17.90
2018-04-24T08:39:05.962Z,17.90
2018-04-24T08:40:06.053Z,17.90
2018-04-24T08:41:11.094Z,17.90
2018-04-24T08:42:10.305Z,17.80
2018-04-24T08:43:05.419Z,17.90
2018-04-24T08:44:06.279Z,17.80
2018-04-24T08:45:05.892Z,17.80
2018-04-24T08:46:05.455Z,17.80
2018-04-24T08:47:10.583Z,17.80
2018-04-24T08:48:06.232Z,17.80
2018-04-24T08:49:05.986Z,17.80
2018-04-24T08:50:05.258Z,17.80
2018-04-24T08:51:05.383Z,17.80
2018-04-24T08:52:10.533Z,17.90
2018-04-24T08:53:05.728Z,17.90
2018-04-24T08:54:11.339Z,18.00
2018-04-24T08:55:11.092Z,18.00
2018-04-24T08:56:06.423Z,18.00
2018-04-24T08:57:05.652Z,18.10
2018-04-24T08:58:08.943Z,18.20
2018-04-24T08:59:05.745Z,18.10
2018-04-24T09:00:10.633Z,18.10
2018-04-24T09:01:10.859Z,18.20
2018-04-24T09:02:06.566Z,18.20
2018-04-24T09:03:06.257Z,18.30
2018-04-24T09:04:05.764Z,18.30
2018-04-24T09:05:10.476Z,18.30
2018-04-24T09:06:06.254Z,18.30
2018-04-24T09:07:10.768Z,18.30
2018-04-24T09:08:06.339Z,18.30
2018-04-24T09:09:05.916Z,18.30
2018-04-24T09:10:10.520Z,18.40
2018-04-24T09:11:10.424Z,18.40
2018-04-24T09:12:08.535Z,18.40
2018-04-24T09:13:06.138Z,18.40
2018-04-24T09:14:08.984Z,18.50
2018-04-24T09:15:10.857Z,18.50
2018-04-24T09:16:08.485Z,18.50
2018-04-24T09:17:12.441Z,18.40
2018-04-24T09:18:07.092Z,18.50
2018-04-24T09:19:05.815Z,18.50
2018-04-24T09:20:05.625Z,18.40
2018-04-24T09:21:06.187Z,18.40
2018-04-24T09:22:10.411Z,18.40
2018-04-24T09:23:06.367Z,18.40
2018-04-24T09:24:08.495Z,18.50
2018-04-24T09:25:06.169Z,18.50
2018-04-24T09:26:05.308Z,18.50
2018-04-24T09:27:05.721Z,18.50
2018-04-24T09:28:05.407Z,18.50
2018-04-24T09:29:10.815Z,18.50
2018-04-24T09:30:05.906Z,18.50
2018-04-24T09:31:10.742Z,18.70
2018-04-24T09:32:07.945Z,18.50
2018-04-24T09:33:05.723Z,18.70
2018-04-24T09:34:05.727Z,18.70
2018-04-24T09:35:09.338Z,18.80
2018-04-24T09:36:05.271Z,18.80
2018-04-24T09:37:06.002Z,18.80
2018-04-24T09:38:13.305Z,18.90
2018-04-24T09:39:06.395Z,18.90
2018-04-24T09:40:08.373Z,19.00
2018-04-24T09:41:05.972Z,18.90
2018-04-24T09:42:06.004Z,19.00
2018-04-24T09:43:05.517Z,19.00
2018-04-24T09:44:10.854Z,19.10
2018-04-24T09:45:10.193Z,19.10
2018-04-24T09:46:08.143Z,19.20
2018-04-24T09:47:05.759Z,19.20
2018-04-24T09:48:05.745Z,19.30
2018-04-24T09:49:05.237Z,19.30
2018-04-24T09:50:08.618Z,19.30
2018-04-24T09:51:06.177Z,19.30
2018-04-24T09:52:08.568Z,19.40
2018-04-24T09:53:16.176Z,19.40
2018-04-24T09:54:09.038Z,19.50
2018-04-24T09:55:06.101Z,19.50
2018-04-24T09:56:07.792Z,19.60
2018-04-24T09:57:13.093Z,19.60
2018-04-24T09:58:05.993Z,19.50
2018-04-24T09:59:06.438Z,19.50
2018-04-24T10:00:06.275Z,19.60
2018-04-24T10:01:09.546Z,19.50
2018-04-24T10:02:05.541Z,19.50
2018-04-24T10:03:05.946Z,19.60
2018-04-24T10:04:10.903Z,19.50
2018-04-24T10:05:09.356Z,19.50
2018-04-24T10:06:06.500Z,19.50
2018-04-24T10:07:05.873Z,19.50
2018-04-24T10:08:06.013Z,19.50
2018-04-24T10:09:09.407Z,19.50
2018-04-24T10:10:08.995Z,19.50
2018-04-24T10:11:09.538Z,19.60
2018-04-24T10:12:06.204Z,19.50
2018-04-24T10:13:07.942Z,19.60
2018-04-24T10:14:05.769Z,19.60
2018-04-24T10:15:06.106Z,19.60
2018-04-24T10:16:05.765Z,19.70
2018-04-24T10:17:09.083Z,19.70
2018-04-24T10:18:05.776Z,19.70
2018-04-24T10:19:05.645Z,19.70
2018-04-24T10:20:08.822Z,19.70
2018-04-24T10:21:08.591Z,19.80
2018-04-24T10:22:05.237Z,19.70
2018-04-24T10:23:07.801Z,19.80
2018-04-24T10:24:09.092Z,19.80
2018-04-24T10:25:05.827Z,19.80
2018-04-24T10:26:05.786Z,19.80
2018-04-24T10:27:10.597Z,19.70
2018-04-24T10:28:05.593Z,19.70
2018-04-24T10:29:08.655Z,19.70
2018-04-24T10:30:10.683Z,19.70
2018-04-24T10:31:12.984Z,19.60
2018-04-24T10:32:12.467Z,19.60
2018-04-24T10:33:05.222Z,19.60
2018-04-24T10:34:05.821Z,19.60
2018-04-24T10:35:05.827Z,19.60
2018-04-24T10:36:09.272Z,19.60
2018-04-24T10:37:10.531Z,19.50
2018-04-24T10:38:12.184Z,19.60
2018-04-24T10:39:08.337Z,19.60
2018-04-24T10:40:07.683Z,19.60
2018-04-24T10:41:10.273Z,19.60
2018-04-24T10:42:05.968Z,19.70
2018-04-24T10:43:05.989Z,19.70
2018-04-24T10:44:05.771Z,19.80
2018-04-24T10:45:05.455Z,19.80
2018-04-24T10:46:09.544Z,19.90
2018-04-24T10:47:06.100Z,19.90
2018-04-24T10:48:05.789Z,19.90
2018-04-24T10:49:05.265Z,20.00
2018-04-24T10:50:05.353Z,20.00
2018-04-24T10:51:05.235Z,20.00
2018-04-24T10:52:05.403Z,20.10
2018-04-24T10:53:10.389Z,20.10
2018-04-24T10:54:05.896Z,20.10
2018-04-24T10:55:05.826Z,20.10
2018-04-24T10:56:05.705Z,20.10
2018-04-24T10:57:06.277Z,20.20
2018-04-24T10:58:11.195Z,20.20
2018-04-24T10:59:06.594Z,20.10
2018-04-24T11:00:08.562Z,20.10
2018-04-24T11:01:06.353Z,20.10
2018-04-24T11:02:10.393Z,20.10
2018-04-24T11:03:09.437Z,20.10
2018-04-24T11:04:06.013Z,20.10
2018-04-24T11:05:07.889Z,20.20
2018-04-24T11:06:05.447Z,20.10
2018-04-24T11:07:05.802Z,20.20
2018-04-24T11:08:05.529Z,20.10
2018-04-24T11:09:09.324Z,20.20
2018-04-24T11:10:07.942Z,20.20
2018-04-24T11:11:05.564Z,20.20
2018-04-24T11:12:06.599Z,20.20
2018-04-24T11:13:05.473Z,20.20
2018-04-24T11:14:05.744Z,20.30
2018-04-24T11:15:05.660Z,20.30
2018-04-24T11:16:06.094Z,20.20
2018-04-24T11:17:06.330Z,20.20
2018-04-24T11:18:08.305Z,20.10
2018-04-24T11:19:11.293Z,20.10
2018-04-24T11:20:05.606Z,20.10
2018-04-24T11:21:05.683Z,20.10
2018-04-24T11:22:05.632Z,20.10
2018-04-24T11:23:10.988Z,20.10
2018-04-24T11:24:05.327Z,20.10
2018-04-24T11:25:07.909Z,20.00
2018-04-24T11:26:07.886Z,20.00
2018-04-24T11:27:05.508Z,20.00
2018-04-24T11:28:05.606Z,20.00
2018-04-24T11:29:06.158Z,20.00
2018-04-24T11:30:05.987Z,20.00
2018-04-24T11:31:08.262Z,20.00
2018-04-24T11:32:10.257Z,20.00
2018-04-24T11:33:08.512Z,20.00
2018-04-24T11:34:06.516Z,20.00
2018-04-24T11:35:05.669Z,20.10
2018-04-24T11:36:05.966Z,20.10
2018-04-24T11:37:06.098Z,20.10
2018-04-24T11:38:05.752Z,20.10
2018-04-24T11:39:10.591Z,20.20
2018-04-24T11:40:07.916Z,20.20
2018-04-24T11:41:05.954Z,20.20
2018-04-24T11:42:06.124Z,20.30
2018-04-24T11:43:13.662Z,20.20
2018-04-24T11:44:05.330Z,20.30
2018-04-24T11:45:06.145Z,20.30
2018-04-24T11:46:05.957Z,20.30
2018-04-24T11:47:09.243Z,20.40
2018-04-24T11:48:06.129Z,20.40
2018-04-24T11:49:05.983Z,20.50
2018-04-24T11:50:08.218Z,20.50
2018-04-24T11:51:10.866Z,20.40
2018-04-24T11:52:10.653Z,20.50
2018-04-24T11:53:08.724Z,20.60
2018-04-24T11:54:10.579Z,20.60
2018-04-24T11:55:05.232Z,20.50
2018-04-24T11:56:08.671Z,20.60
2018-04-24T11:57:07.879Z,20.60
2018-04-24T11:58:08.180Z,20.60
2018-04-24T11:59:05.880Z,20.50
2018-04-24T12:00:10.573Z,20.50
2018-04-24T12:01:05.877Z,20.50
2018-04-24T12:02:06.017Z,20.50
2018-04-24T12:03:06.104Z,20.50
2018-04-24T12:04:10.301Z,20.60
2018-04-24T12:05:08.482Z,20.60
2018-04-24T12:06:10.271Z,20.60
2018-04-24T12:07:05.850Z,20.70
2018-04-24T12:08:08.067Z,20.70
2018-04-24T12:09:06.096Z,20.70
2018-04-24T12:10:05.940Z,20.70
2018-04-24T12:11:11.002Z,20.70
2018-04-24T12:12:10.563Z,20.70
2018-04-24T12:13:06.359Z,20.70
2018-04-24T12:14:05.663Z,20.80
2018-04-24T12:15:10.409Z,20.80
2018-04-24T12:16:08.719Z,20.90
2018-04-24T12:17:10.463Z,20.90
2018-04-24T12:18:06.326Z,20.90
2018-04-24T12:19:06.331Z,20.90
2018-04-24T12:20:05.896Z,21.00
2018-04-24T12:21:05.646Z,21.00
2018-04-24T12:22:10.591Z,21.00
2018-04-24T12:23:05.207Z,21.00
2018-04-24T12:24:06.041Z,21.00
2018-04-24T12:25:06.375Z,21.00
2018-04-24T12:26:10.426Z,21.00
2018-04-24T12:27:05.888Z,21.00
2018-04-24T12:28:05.979Z,21.00
2018-04-24T12:29:08.493Z,21.00
2018-04-24T12:30:06.292Z,21.00
2018-04-24T12:31:06.067Z,21.00
2018-04-24T12:32:06.131Z,21.00
2018-04-24T12:33:05.968Z,21.00
2018-04-24T12:34:06.511Z,21.00
2018-04-24T12:35:10.431Z,21.00
2018-04-24T12:36:06.080Z,21.00
2018-04-24T12:37:07.859Z,21.00
2018-04-24T12:38:05.704Z,21.00
2018-04-24T12:39:05.531Z,21.00
2018-04-24T12:40:08.255Z,20.90
2018-04-24T12:41:10.919Z,20.90
2018-04-24T12:42:06.387Z,20.90
2018-04-24T12:43:05.711Z,20.90
2018-04-24T12:44:05.735Z,20.90
2018-04-24T12:45:05.479Z,20.90
2018-04-24T12:46:05.916Z,21.00
2018-04-24T12:47:08.775Z,21.00
2018-04-24T12:48:05.375Z,21.00
2018-04-24T12:49:12.866Z,21.00
2018-04-24T12:50:05.740Z,21.00
2018-04-24T12:51:05.417Z,21.00
2018-04-24T12:52:09.103Z,21.00